createdAt,value
2023-05-21T00:01:54.750Z,98543.22
2023-05-21T00:04:21.484Z,98537.66
2023-05-21T00:06:48.036Z,98529.75
2023-05-21T00:09:14.622Z,98525.59
2023-05-21T00:11:41.380Z,98529.50
2023-05-21T00:14:08.077Z,98530.28
2023-05-21T00:16:34.723Z,98527.78
2023-05-21T00:19:02.441Z,98538.50
2023-05-21T00:21:29.821Z,98535.84
2023-05-21T00:23:56.721Z,98535.03
2023-05-21T00:26:26.595Z,98531.59
2023-05-21T00:28:53.160Z,98517.50
2023-05-21T00:31:19.886Z,98528.34
2023-05-21T00:33:46.616Z,98526.19
2023-05-21T00:36:14.562Z,98519.38
2023-05-21T00:38:43.884Z,98521.03
2023-05-21T00:41:11.080Z,98514.88
2023-05-21T00:43:40.550Z,98511.31
2023-05-21T00:46:08.778Z,98511.41
2023-05-21T00:48:35.551Z,98510.66
2023-05-21T00:51:02.419Z,98513.41
2023-05-21T00:53:30.290Z,98512.44
2023-05-21T00:55:57.758Z,98505.50
2023-05-21T00:58:24.507Z,98508.50
2023-05-21T01:00:51.487Z,98500.59
2023-05-21T01:03:18.297Z,98505.91
2023-05-21T01:05:47.106Z,98498.88
2023-05-21T01:08:15.219Z,98505.00
2023-05-21T01:10:42.045Z,98494.44
2023-05-21T01:13:08.738Z,98501.50
2023-05-21T01:15:36.109Z,98496.41
2023-05-21T01:18:03.110Z,98498.19
2023-05-21T01:20:32.323Z,98489.47
2023-05-21T01:22:59.465Z,98495.84
2023-05-21T01:25:26.301Z,98496.88
2023-05-21T01:27:53.083Z,98494.44
2023-05-21T01:30:21.990Z,98493.53
2023-05-21T01:33:00.907Z,98488.31
2023-05-21T01:35:30.107Z,98494.34
2023-05-21T01:38:15.657Z,98500.41
2023-05-21T01:40:52.225Z,98500.50
2023-05-21T01:43:20.189Z,98495.50
2023-05-21T01:45:47.997Z,98490.22
2023-05-21T01:48:15.165Z,98492.94
2023-05-21T01:50:44.641Z,98495.66
2023-05-21T01:53:11.321Z,98491.34
2023-05-21T01:55:42.046Z,98500.09
2023-05-21T01:58:08.981Z,98501.16
2023-05-21T02:00:36.006Z,98504.69
2023-05-21T02:03:02.859Z,98505.59
2023-05-21T02:05:29.521Z,98496.00
2023-05-21T02:07:57.324Z,98501.25
2023-05-21T02:10:23.950Z,98489.81
2023-05-21T02:12:50.980Z,98495.03
2023-05-21T02:15:20.443Z,98495.91
2023-05-21T02:17:47.406Z,98499.50
2023-05-21T02:20:14.692Z,98490.88
2023-05-21T02:22:43.668Z,98493.72
2023-05-21T02:25:12.085Z,98492.91
2023-05-21T02:27:40.782Z,98496.53
2023-05-21T02:30:09.532Z,98496.53
2023-05-21T02:32:36.693Z,98503.66
2023-05-21T02:35:04.889Z,98503.59
2023-05-21T02:37:34.015Z,98503.66
2023-05-21T02:40:02.505Z,98497.59
2023-05-21T02:42:29.247Z,98500.31
2023-05-21T02:44:56.664Z,98496.81
2023-05-21T02:47:23.996Z,98497.69
2023-05-21T02:49:51.896Z,98483.81
2023-05-21T02:52:22.166Z,98491.56
2023-05-21T02:54:48.980Z,98479.09
2023-05-21T02:57:16.071Z,98479.94
2023-05-21T02:59:42.661Z,98473.63
2023-05-21T03:02:09.382Z,98478.03
2023-05-21T03:04:39.176Z,98471.19
2023-05-21T03:07:06.425Z,98474.03
2023-05-21T03:09:32.969Z,98472.34
2023-05-21T03:11:59.591Z,98471.53
2023-05-21T03:14:26.229Z,98471.38
2023-05-21T03:16:54.383Z,98476.59
2023-05-21T03:19:21.536Z,98460.00
2023-05-21T03:21:49.248Z,98471.44
2023-05-21T03:24:16.002Z,98473.28
2023-05-21T03:26:42.607Z,98473.28
2023-05-21T03:29:09.350Z,98481.00
2023-05-21T03:31:36.041Z,98484.66
2023-05-21T03:34:02.661Z,98482.19
2023-05-21T03:36:29.504Z,98484.81
2023-05-21T03:38:56.202Z,98483.09
2023-05-21T03:41:23.176Z,98489.22
2023-05-21T03:43:49.748Z,98486.63
2023-05-21T03:46:16.573Z,98482.13
2023-05-21T03:48:43.264Z,98484.72
2023-05-21T03:51:09.846Z,98478.41
2023-05-21T03:53:37.147Z,98482.63
2023-05-21T03:56:03.941Z,98486.88
2023-05-21T03:58:31.124Z,98492.09
2023-05-21T04:00:57.872Z,98488.69
2023-05-21T04:03:25.010Z,98488.91
2023-05-21T04:05:51.837Z,98491.38
2023-05-21T04:08:18.486Z,98494.00
2023-05-21T04:10:45.227Z,98500.13
2023-05-21T04:13:11.922Z,98501.56
2023-05-21T04:15:38.909Z,98501.31
2023-05-21T04:18:07.424Z,98499.34
2023-05-21T04:20:34.154Z,98496.56
2023-05-21T04:23:01.309Z,98498.13
2023-05-21T04:25:27.917Z,98502.28
2023-05-21T04:27:54.985Z,98500.47
2023-05-21T04:30:22.199Z,98502.06
2023-05-21T04:32:49.058Z,98502.63
2023-05-21T04:35:16.203Z,98499.59
2023-05-21T04:37:42.889Z,98495.06
2023-05-21T04:40:10.115Z,98505.28
2023-05-21T04:42:36.858Z,98506.78
2023-05-21T04:45:03.625Z,98505.88
2023-05-21T04:47:30.490Z,98511.09
2023-05-21T04:49:57.216Z,98507.59
2023-05-21T04:52:25.208Z,98514.53
2023-05-21T04:54:52.034Z,98514.59
2023-05-21T04:57:18.765Z,98508.34
2023-05-21T04:59:45.470Z,98509.84
2023-05-21T05:02:12.048Z,98507.69
2023-05-21T05:04:38.909Z,98507.22
2023-05-21T05:07:05.655Z,98509.38
2023-05-21T05:09:32.330Z,98499.06
2023-05-21T05:11:59.042Z,98500.97
2023-05-21T05:14:25.768Z,98497.75
2023-05-21T05:16:52.509Z,98495.84
2023-05-21T05:19:19.308Z,98491.66
2023-05-21T05:21:46.552Z,98485.34
2023-05-21T05:24:13.284Z,98494.63
2023-05-21T05:26:39.880Z,98495.72
2023-05-21T05:29:06.571Z,98489.03
2023-05-21T05:31:33.289Z,98496.09
2023-05-21T05:33:59.927Z,98491.22
2023-05-21T05:36:27.295Z,98487.25
2023-05-21T05:38:53.797Z,98491.44
2023-05-21T05:41:21.201Z,98489.00
2023-05-21T05:43:48.180Z,98480.63
2023-05-21T05:46:14.827Z,98471.78
2023-05-21T05:48:41.515Z,98482.38
2023-05-21T05:51:08.307Z,98482.81
2023-05-21T05:53:35.009Z,98484.13
2023-05-21T05:56:01.741Z,98485.97
2023-05-21T05:58:29.970Z,98486.19
2023-05-21T06:00:56.552Z,98483.31
2023-05-21T06:03:23.349Z,98487.13
2023-05-21T06:05:50.513Z,98498.09
2023-05-21T06:08:17.267Z,98483.53
2023-05-21T06:10:43.848Z,98486.13
2023-05-21T06:13:10.484Z,98491.66
2023-05-21T06:15:37.280Z,98492.22
2023-05-21T06:18:04.202Z,98489.78
2023-05-21T06:20:31.003Z,98493.84
2023-05-21T06:22:57.586Z,98489.16
2023-05-21T06:25:25.996Z,98479.78
2023-05-21T06:27:52.832Z,98488.53
2023-05-21T06:30:19.598Z,98481.22
2023-05-21T06:32:46.661Z,98489.94
2023-05-21T06:35:13.517Z,98478.19
2023-05-21T06:37:40.204Z,98479.94
2023-05-21T06:40:07.854Z,98474.66
2023-05-21T06:42:34.816Z,98478.06
2023-05-21T06:45:02.177Z,98474.00
2023-05-21T06:47:28.638Z,98475.03
2023-05-21T06:49:55.331Z,98478.72
2023-05-21T06:52:22.079Z,98483.84
2023-05-21T06:54:48.836Z,98482.47
2023-05-21T06:57:16.438Z,98486.81
2023-05-21T06:59:43.277Z,98481.50
2023-05-21T07:02:09.910Z,98476.28
2023-05-21T07:04:37.063Z,98484.81
2023-05-21T07:07:06.309Z,98479.94
2023-05-21T07:09:32.884Z,98485.00
2023-05-21T07:11:59.604Z,98479.16
2023-05-21T07:14:26.788Z,98479.28
2023-05-21T07:16:53.890Z,98476.44
2023-05-21T07:19:20.604Z,98487.09
2023-05-21T07:21:47.495Z,98484.41
2023-05-21T07:24:14.124Z,98482.53
2023-05-21T07:26:41.265Z,98485.44
2023-05-21T07:29:08.038Z,98479.63
2023-05-21T07:31:34.737Z,98475.94
2023-05-21T07:34:01.580Z,98477.47
2023-05-21T07:36:28.232Z,98479.25
2023-05-21T07:38:55.144Z,98470.56
2023-05-21T07:41:22.206Z,98473.19
2023-05-21T07:43:49.092Z,98464.63
2023-05-21T07:46:15.860Z,98466.31
2023-05-21T07:48:43.893Z,98467.56
2023-05-21T07:51:11.678Z,98461.31
2023-05-21T07:53:38.589Z,98471.28
2023-05-21T07:56:05.417Z,98459.00
2023-05-21T07:58:32.696Z,98460.44
2023-05-21T08:00:59.352Z,98449.66
2023-05-21T08:03:26.852Z,98442.78
2023-05-21T08:05:53.516Z,98440.75
2023-05-21T08:08:22.168Z,98440.31
2023-05-21T08:10:49.268Z,98433.16
2023-05-21T08:13:16.640Z,98436.50
2023-05-21T08:15:43.667Z,98432.47
2023-05-21T08:18:10.579Z,98427.50
2023-05-21T08:20:37.648Z,98431.53
2023-05-21T08:23:04.517Z,98430.47
2023-05-21T08:25:31.540Z,98439.91
2023-05-21T08:27:58.322Z,98432.81
2023-05-21T08:30:24.943Z,98437.31
2023-05-21T08:32:51.616Z,98432.59
2023-05-21T08:35:18.375Z,98434.66
2023-05-21T08:37:44.935Z,98430.16
2023-05-21T08:40:12.608Z,98434.94
2023-05-21T08:42:49.558Z,98431.38
2023-05-21T08:45:23.495Z,98435.13
2023-05-21T08:47:57.644Z,98435.63
2023-05-21T08:50:28.290Z,98426.50
2023-05-21T08:52:55.619Z,98421.19
2023-05-21T08:55:25.042Z,98427.88
2023-05-21T08:57:54.714Z,98424.06
2023-05-21T09:00:21.474Z,98433.41
2023-05-21T09:02:48.304Z,98428.56
2023-05-21T09:05:15.321Z,98430.03
2023-05-21T09:07:52.313Z,98429.06
2023-05-21T09:10:27.267Z,98423.19
2023-05-21T09:12:54.161Z,98428.34
2023-05-21T09:15:21.247Z,98422.72
2023-05-21T09:17:51.007Z,98423.41
2023-05-21T09:20:17.979Z,98414.53
2023-05-21T09:22:46.659Z,98418.56
2023-05-21T09:25:29.459Z,98420.50
2023-05-21T09:27:56.742Z,98425.31
2023-05-21T09:30:26.802Z,98419.75
2023-05-21T09:33:00.068Z,98420.25
2023-05-21T09:35:27.110Z,98419.31
2023-05-21T09:37:54.227Z,98428.44
2023-05-21T09:40:22.406Z,98423.78
2023-05-21T09:42:51.122Z,98417.09
2023-05-21T09:45:28.286Z,98422.94
2023-05-21T09:47:56.295Z,98413.94
2023-05-21T09:50:29.843Z,98415.09
2023-05-21T09:52:56.623Z,98418.09
2023-05-21T09:55:24.041Z,98412.72
2023-05-21T09:57:51.568Z,98403.88
2023-05-21T10:00:21.363Z,98412.22
2023-05-21T10:02:50.010Z,98403.06
2023-05-21T10:05:17.675Z,98401.00
2023-05-21T10:07:51.977Z,98396.56
2023-05-21T10:10:21.530Z,98394.16
2023-05-21T10:12:52.274Z,98390.72
2023-05-21T10:15:23.984Z,98393.56
2023-05-21T10:17:52.346Z,98393.00
2023-05-21T10:20:19.714Z,98386.63
2023-05-21T10:22:46.892Z,98384.81
2023-05-21T10:25:13.604Z,98383.63
2023-05-21T10:27:41.666Z,98386.50
2023-05-21T10:30:09.602Z,98382.44
2023-05-21T10:32:36.377Z,98385.91
2023-05-21T10:35:03.375Z,98380.88
2023-05-21T10:37:30.072Z,98380.41
2023-05-21T10:39:57.357Z,98384.22
2023-05-21T10:42:23.962Z,98384.03
2023-05-21T10:45:12.500Z,98386.03
2023-05-21T10:48:00.413Z,98381.25
2023-05-21T10:50:38.668Z,98375.53
2023-05-21T10:53:45.921Z,98378.38
2023-05-21T10:56:25.507Z,98368.22
2023-05-21T10:59:12.184Z,98369.50
2023-05-21T11:01:40.758Z,98363.47
2023-05-21T11:04:07.850Z,98351.00
2023-05-21T11:06:34.509Z,98352.31
2023-05-21T11:09:11.878Z,98359.41
2023-05-21T11:11:48.708Z,98358.16
2023-05-21T11:14:35.583Z,98353.28
2023-05-21T11:17:03.513Z,98340.53
2023-05-21T11:19:48.263Z,98342.78
2023-05-21T11:22:26.171Z,98330.81
2023-05-21T11:24:54.589Z,98327.50
2023-05-21T11:27:33.908Z,98336.75
2023-05-21T11:30:04.554Z,98337.31
2023-05-21T11:32:31.766Z,98330.53
2023-05-21T11:35:03.997Z,98327.81
2023-05-21T11:37:31.978Z,98314.91
2023-05-21T11:40:17.221Z,98313.59
2023-05-21T11:42:44.299Z,98309.56
2023-05-21T11:45:11.244Z,98311.00
2023-05-21T11:47:37.967Z,98313.16
2023-05-21T11:50:05.150Z,98312.38
2023-05-21T11:52:33.318Z,98306.94
2023-05-21T11:55:00.387Z,98297.94
2023-05-21T11:57:31.557Z,98297.81
2023-05-21T12:00:02.693Z,98308.97
2023-05-21T12:02:33.307Z,98301.03
2023-05-21T12:05:00.606Z,98300.59
2023-05-21T12:07:31.394Z,98293.81
2023-05-21T12:09:58.844Z,98292.63
2023-05-21T12:12:30.785Z,98295.97
2023-05-21T12:15:03.166Z,98284.47
2023-05-21T12:17:31.835Z,98288.19
2023-05-21T12:19:59.172Z,98283.81
2023-05-21T12:22:28.049Z,98279.78
2023-05-21T12:24:54.968Z,98289.13
2023-05-21T12:27:22.535Z,98288.47
2023-05-21T12:29:51.885Z,98285.66
2023-05-21T12:32:20.791Z,98274.63
2023-05-21T12:34:52.769Z,98279.75
2023-05-21T12:37:23.201Z,98272.25
2023-05-21T12:39:55.409Z,98279.47
2023-05-21T12:42:35.027Z,98275.38
2023-05-21T12:45:06.856Z,98270.72
2023-05-21T12:47:33.869Z,98279.47
2023-05-21T12:50:02.061Z,98275.09
2023-05-21T12:52:29.658Z,98273.66
2023-05-21T12:54:57.210Z,98264.66
2023-05-21T12:57:35.017Z,98268.69
2023-05-21T13:00:04.523Z,98272.50
2023-05-21T13:02:33.321Z,98276.22
2023-05-21T13:05:07.775Z,98261.16
2023-05-21T13:07:38.456Z,98258.72
2023-05-21T13:10:06.381Z,98249.34
2023-05-21T13:12:34.170Z,98253.34
2023-05-21T13:15:03.395Z,98253.59
2023-05-21T13:17:30.785Z,98254.72
2023-05-21T13:20:15.132Z,98254.72
2023-05-21T13:22:44.265Z,98246.53
2023-05-21T13:25:11.952Z,98243.09
2023-05-21T13:27:42.006Z,98248.69
2023-05-21T13:30:09.644Z,98244.75
2023-05-21T13:32:36.933Z,98246.41
2023-05-21T13:35:04.066Z,98244.06
2023-05-21T13:37:31.028Z,98232.72
2023-05-21T13:39:57.832Z,98242.06
2023-05-21T13:42:24.477Z,98242.41
2023-05-21T13:44:51.201Z,98230.72
2023-05-21T13:47:17.782Z,98234.31
2023-05-21T13:49:44.332Z,98237.13
2023-05-21T13:52:11.889Z,98234.53
2023-05-21T13:54:38.582Z,98223.25
2023-05-21T13:57:05.435Z,98232.53
2023-05-21T13:59:33.837Z,98231.09
2023-05-21T14:02:01.136Z,98242.53
2023-05-21T14:04:27.818Z,98228.59
2023-05-21T14:06:54.531Z,98232.94
2023-05-21T14:09:21.510Z,98233.34
2023-05-21T14:11:48.080Z,98227.53
2023-05-21T14:14:18.966Z,98237.47
2023-05-21T14:16:47.389Z,98234.63
2023-05-21T14:19:14.942Z,98237.91
2023-05-21T14:21:42.198Z,98234.00
2023-05-21T14:24:08.971Z,98235.63
2023-05-21T14:26:40.265Z,98232.22
2023-05-21T14:29:07.387Z,98225.94
2023-05-21T14:31:34.230Z,98225.53
2023-05-21T14:34:01.997Z,98231.44
2023-05-21T14:36:29.308Z,98233.06
2023-05-21T14:38:56.267Z,98223.06
2023-05-21T14:41:26.907Z,98225.78
2023-05-21T14:43:53.957Z,98225.41
2023-05-21T14:46:21.027Z,98218.44
2023-05-21T14:48:47.767Z,98225.09
2023-05-21T14:51:14.614Z,98226.78
2023-05-21T14:53:41.332Z,98228.91
2023-05-21T14:56:08.519Z,98230.34
2023-05-21T14:58:35.238Z,98224.31
2023-05-21T15:01:02.697Z,98222.81
2023-05-21T15:03:29.458Z,98232.16
2023-05-21T15:05:56.373Z,98232.84
2023-05-21T15:08:23.110Z,98233.59
2023-05-21T15:10:49.626Z,98230.75
2023-05-21T15:13:16.302Z,98236.34
2023-05-21T15:15:43.048Z,98227.72
2023-05-21T15:18:09.791Z,98233.22
2023-05-21T15:20:36.475Z,98235.88
2023-05-21T15:25:32.655Z,98225.69
2023-05-21T15:27:59.579Z,98227.06
2023-05-21T15:30:27.455Z,98218.81
2023-05-21T15:32:54.462Z,98218.00
2023-05-21T15:35:21.204Z,98218.59
2023-05-21T15:37:47.834Z,98221.41
2023-05-21T15:40:14.678Z,98216.31
2023-05-21T15:42:41.347Z,98213.63
2023-05-21T15:45:08.502Z,98204.22
2023-05-21T15:47:35.178Z,98203.50
2023-05-21T15:50:01.815Z,98206.28
2023-05-21T15:52:28.538Z,98210.44
2023-05-21T15:54:55.184Z,98206.13
2023-05-21T15:57:22.026Z,98206.09
2023-05-21T15:59:50.595Z,98212.78
2023-05-21T16:02:17.258Z,98212.28
2023-05-21T16:04:43.922Z,98207.44
2023-05-21T16:07:10.604Z,98207.13
2023-05-21T16:09:38.383Z,98211.13
2023-05-21T16:12:05.468Z,98203.13
2023-05-21T16:14:32.096Z,98203.06
2023-05-21T16:16:58.795Z,98208.06
2023-05-21T16:19:25.732Z,98210.63
2023-05-21T16:21:52.410Z,98213.44
2023-05-21T16:24:19.208Z,98202.41
2023-05-21T16:26:46.480Z,98205.13
2023-05-21T16:29:13.215Z,98200.66
2023-05-21T16:31:40.054Z,98211.31
2023-05-21T16:34:07.229Z,98206.06
2023-05-21T16:36:34.130Z,98206.91
2023-05-21T16:39:00.732Z,98206.47
2023-05-21T16:41:27.512Z,98206.03
2023-05-21T16:43:54.531Z,98203.50
2023-05-21T16:46:21.786Z,98200.63
2023-05-21T16:48:48.569Z,98208.91
2023-05-21T16:51:15.554Z,98207.63
2023-05-21T16:53:42.141Z,98199.38
2023-05-21T16:56:08.954Z,98193.38
2023-05-21T16:58:36.352Z,98195.03
2023-05-21T17:01:04.007Z,98202.22
2023-05-21T17:03:32.639Z,98204.91
2023-05-21T17:05:59.383Z,98206.94
2023-05-21T17:08:26.147Z,98207.03
2023-05-21T17:10:52.761Z,98203.88
2023-05-21T17:13:22.750Z,98199.28
2023-05-21T17:15:53.129Z,98204.38
2023-05-21T17:18:19.964Z,98208.63
2023-05-21T17:20:46.656Z,98198.38
2023-05-21T17:23:13.628Z,98202.56
2023-05-21T17:25:40.826Z,98199.00
2023-05-21T17:28:07.700Z,98197.78
2023-05-21T17:30:34.529Z,98203.06
2023-05-21T17:33:04.111Z,98201.72
2023-05-21T17:35:30.782Z,98200.22
2023-05-21T17:37:57.605Z,98202.19
2023-05-21T17:40:25.122Z,98204.16
2023-05-21T17:42:52.825Z,98197.38
2023-05-21T17:45:19.630Z,98202.50
2023-05-21T17:47:46.486Z,98203.28
2023-05-21T17:50:13.376Z,98202.06
2023-05-21T17:52:40.342Z,98205.59
2023-05-21T17:55:07.992Z,98214.78
2023-05-21T17:57:36.128Z,98212.38
2023-05-21T18:00:05.187Z,98214.56
2023-05-21T18:02:31.970Z,98221.03
2023-05-21T18:04:58.753Z,98215.56
2023-05-21T18:07:25.774Z,98223.09
2023-05-21T18:09:52.429Z,98225.47
2023-05-21T18:12:19.157Z,98228.25
2023-05-21T18:14:45.990Z,98230.19
2023-05-21T18:17:12.902Z,98233.09
2023-05-21T18:19:39.575Z,98229.69
2023-05-21T18:22:06.729Z,98224.34
2023-05-21T18:24:33.561Z,98239.34
2023-05-21T18:27:00.155Z,98236.41
2023-05-21T18:29:26.855Z,98236.41
2023-05-21T18:31:53.840Z,98249.81
2023-05-21T18:34:20.571Z,98255.66
2023-05-21T18:36:48.208Z,98255.78
2023-05-21T18:39:14.924Z,98255.78
2023-05-21T18:41:41.744Z,98250.03
2023-05-21T18:44:08.600Z,98258.69
2023-05-21T18:46:35.333Z,98256.94
2023-05-21T18:49:02.014Z,98248.25
2023-05-21T18:51:28.636Z,98258.13
2023-05-21T18:53:55.250Z,98260.75
2023-05-21T18:56:22.093Z,98254.91
2023-05-21T18:58:48.885Z,98261.63
2023-05-21T19:01:16.346Z,98268.16
2023-05-21T19:03:43.311Z,98256.44
2023-05-21T19:06:09.941Z,98261.59
2023-05-21T19:08:36.605Z,98271.78
2023-05-21T19:11:03.289Z,98266.75
2023-05-21T19:13:30.046Z,98278.47
2023-05-21T19:15:58.665Z,98276.84
2023-05-21T19:18:30.481Z,98269.59
2023-05-21T19:20:57.512Z,98276.66
2023-05-21T19:23:24.981Z,98281.19
2023-05-21T19:25:51.872Z,98285.00
2023-05-21T19:28:19.025Z,98282.41
2023-05-21T19:30:46.466Z,98284.56
2023-05-21T19:33:13.344Z,98293.56
2023-05-21T19:35:42.032Z,98292.03
2023-05-21T19:38:11.989Z,98291.81
2023-05-21T19:40:38.893Z,98288.75
2023-05-21T19:43:05.779Z,98291.41
2023-05-21T19:45:32.371Z,98284.34
2023-05-21T19:48:00.006Z,98290.56
2023-05-21T19:50:28.874Z,98290.56
2023-05-21T19:52:57.345Z,98294.19
2023-05-21T19:55:24.929Z,98297.16
2023-05-21T19:57:51.839Z,98294.81
2023-05-21T20:00:19.413Z,98297.25
2023-05-21T20:02:46.470Z,98295.19
2023-05-21T20:05:13.346Z,98293.47
2023-05-21T20:07:40.248Z,98290.28
2023-05-21T20:10:08.935Z,98285.56
2023-05-21T20:12:35.865Z,98294.13
2023-05-21T20:15:03.557Z,98293.38
2023-05-21T20:17:30.752Z,98294.63
2023-05-21T20:19:59.223Z,98287.22
2023-05-21T20:22:26.098Z,98289.00
2023-05-21T20:24:53.083Z,98294.38
2023-05-21T20:27:20.129Z,98297.81
2023-05-21T20:29:46.925Z,98295.81
2023-05-21T20:32:13.562Z,98292.03
2023-05-21T20:34:50.714Z,98298.34
2023-05-21T20:37:27.295Z,98294.88
2023-05-21T20:39:57.910Z,98296.59
2023-05-21T20:42:30.954Z,98296.59
2023-05-21T20:45:00.298Z,98286.34
2023-05-21T20:47:30.316Z,98287.47
2023-05-21T20:50:00.335Z,98286.09
2023-05-21T20:52:27.106Z,98287.28
2023-05-21T20:54:54.907Z,98289.72
2023-05-21T20:57:26.284Z,98289.63
2023-05-21T20:59:53.528Z,98293.34
2023-05-21T21:02:20.768Z,98286.50
2023-05-21T21:04:49.197Z,98293.16
2023-05-21T21:07:18.195Z,98288.38
2023-05-21T21:09:49.212Z,98295.75
2023-05-21T21:12:26.106Z,98301.13
2023-05-21T21:14:53.967Z,98300.22
2023-05-21T21:17:20.754Z,98301.72
2023-05-21T21:19:47.566Z,98301.13
2023-05-21T21:22:15.705Z,98291.84
2023-05-21T21:24:42.441Z,98296.97
2023-05-21T21:27:09.264Z,98302.84
2023-05-21T21:29:35.894Z,98302.56
2023-05-21T21:32:02.604Z,98300.94
2023-05-21T21:34:29.300Z,98305.50
2023-05-21T21:36:56.249Z,98298.66
2023-05-21T21:39:22.885Z,98297.31
2023-05-21T21:41:49.548Z,98298.63
2023-05-21T21:44:16.177Z,98293.13
2023-05-21T21:46:42.902Z,98290.91
2023-05-21T21:49:09.648Z,98293.19
2023-05-21T21:51:37.028Z,98291.91
2023-05-21T21:54:04.174Z,98290.13
2023-05-21T21:56:31.030Z,98290.47
2023-05-21T21:58:57.689Z,98296.31
2023-05-21T22:01:24.474Z,98289.81
2023-05-21T22:03:51.206Z,98289.44
2023-05-21T22:06:17.900Z,98288.72
2023-05-21T22:08:44.864Z,98287.38
2023-05-21T22:11:11.778Z,98291.31
2023-05-21T22:13:38.789Z,98291.63
2023-05-21T22:16:05.790Z,98291.38
2023-05-21T22:18:40.940Z,98289.16
2023-05-21T22:21:10.397Z,98285.66
2023-05-21T22:23:38.529Z,98297.09
2023-05-21T22:26:05.637Z,98295.59
2023-05-21T22:28:32.366Z,98296.38
2023-05-21T22:30:59.567Z,98291.91
2023-05-21T22:33:26.910Z,98291.56
2023-05-21T22:35:54.272Z,98300.63
2023-05-21T22:38:21.013Z,98299.06
2023-05-21T22:40:47.716Z,98303.50
2023-05-21T22:43:14.366Z,98289.78
2023-05-21T22:45:40.961Z,98291.75
2023-05-21T22:48:09.119Z,98289.56
2023-05-21T22:50:36.269Z,98294.53
2023-05-21T22:53:03.306Z,98290.47
2023-05-21T22:55:29.890Z,98290.94
2023-05-21T22:57:56.658Z,98296.25
2023-05-21T23:00:23.555Z,98281.97
2023-05-21T23:02:53.095Z,98285.25
2023-05-21T23:05:20.867Z,98285.34
2023-05-21T23:07:47.646Z,98283.44
2023-05-21T23:10:14.615Z,98279.84
2023-05-21T23:12:41.512Z,98286.09
2023-05-21T23:15:10.131Z,98288.75
2023-05-21T23:17:37.877Z,98282.44
2023-05-21T23:20:06.405Z,98279.38
2023-05-21T23:22:33.051Z,98281.53
2023-05-21T23:24:59.702Z,98280.03
2023-05-21T23:27:26.318Z,98288.22
2023-05-21T23:29:52.890Z,98278.50
2023-05-21T23:32:19.692Z,98282.81
2023-05-21T23:34:46.537Z,98283.25
2023-05-21T23:37:13.151Z,98278.91
2023-05-21T23:39:39.969Z,98285.75
2023-05-21T23:42:06.827Z,98280.97
2023-05-21T23:44:33.517Z,98289.03
2023-05-21T23:47:00.053Z,98287.63
2023-05-21T23:49:26.620Z,98290.16
2023-05-21T23:51:53.496Z,98288.28
2023-05-21T23:54:20.045Z,98290.47
2023-05-21T23:56:46.878Z,98282.44
2023-05-21T23:59:14.184Z,98283.78
